sensor_id;sensor_type;location;lat;lon;timestamp;pressure;altitude;pressure_sealevel;temperature;humidity
44103;BME280;29769;42.178;24.742;2023-03-31T00:00:22;99752.66;;;9.05;50.93
44103;BME280;29769;42.178;24.742;2023-03-31T00:03:06;99727.38;;;8.96;50.88
44103;BME280;29769;42.178;24.742;2023-03-31T00:05:57;99747.41;;;9.05;51.01
44103;BME280;29769;42.178;24.742;2023-03-31T00:08:46;99738.78;;;8.93;51.57
44103;BME280;29769;42.178;24.742;2023-03-31T00:11:34;99739.59;;;8.96;51.81
44103;BME280;29769;42.178;24.742;2023-03-31T00:14:20;99734.34;;;8.97;51.75
44103;BME280;29769;42.178;24.742;2023-03-31T00:17:05;99736.94;;;9.02;51.35
44103;BME280;29769;42.178;24.742;2023-03-31T00:19:49;99722.06;;;9.02;51.72
44103;BME280;29769;42.178;24.742;2023-03-31T00:22:34;99722.88;;;9.12;51.38
44103;BME280;29769;42.178;24.742;2023-03-31T00:25:22;99706.25;;;9.11;50.86
44103;BME280;29769;42.178;24.742;2023-03-31T00:28:06;99721.91;;;9.19;51.01
44103;BME280;29769;42.178;24.742;2023-03-31T00:30:51;99723.69;;;9.17;51.66
44103;BME280;29769;42.178;24.742;2023-03-31T00:33:36;99724.69;;;9.02;52.00
44103;BME280;29769;42.178;24.742;2023-03-31T00:36:22;99709.06;;;8.87;52.08
44103;BME280;29769;42.178;24.742;2023-03-31T00:39:15;99720.38;;;8.98;52.28
44103;BME280;29769;42.178;24.742;2023-03-31T00:42:04;99716.06;;;8.88;52.73
44103;BME280;29769;42.178;24.742;2023-03-31T00:48:05;99681.47;;;8.37;56.34
44103;BME280;29769;42.178;24.742;2023-03-31T00:50:55;99691.25;;;8.07;59.11
44103;BME280;29769;42.178;24.742;2023-03-31T00:53:41;99683.53;;;7.75;60.43
44103;BME280;29769;42.178;24.742;2023-03-31T00:56:28;99701.84;;;7.78;60.02
44103;BME280;29769;42.178;24.742;2023-03-31T00:59:15;99696.63;;;7.73;59.20
44103;BME280;29769;42.178;24.742;2023-03-31T01:02:02;99697.53;;;7.66;59.54
44103;BME280;29769;42.178;24.742;2023-03-31T01:04:54;99695.78;;;7.71;58.48
44103;BME280;29769;42.178;24.742;2023-03-31T01:07:44;99694.00;;;7.75;58.06
44103;BME280;29769;42.178;24.742;2023-03-31T01:10:38;99677.47;;;7.64;58.31
44103;BME280;29769;42.178;24.742;2023-03-31T01:13:25;99687.94;;;7.60;58.95
44103;BME280;29769;42.178;24.742;2023-03-31T01:16:12;99686.19;;;7.59;58.94
44103;BME280;29769;42.178;24.742;2023-03-31T01:18:57;99689.72;;;7.57;59.28
44103;BME280;29769;42.178;24.742;2023-03-31T01:32:23;99708.00;;;7.69;60.40
44103;BME280;29769;42.178;24.742;2023-03-31T01:35:19;99706.25;;;7.68;60.77
44103;BME280;29769;42.178;24.742;2023-03-31T01:38:38;99693.13;;;7.74;60.73
44103;BME280;29769;42.178;24.742;2023-03-31T01:44:51;99683.72;;;7.15;63.47
44103;BME280;29769;42.178;24.742;2023-03-31T01:48:00;99688.97;;;7.06;63.49
44103;BME280;29769;42.178;24.742;2023-03-31T01:50:55;99686.38;;;6.99;64.54
44103;BME280;29769;42.178;24.742;2023-03-31T01:53:56;99689.00;;;6.85;66.09
44103;BME280;29769;42.178;24.742;2023-03-31T01:57:10;99681.16;;;6.72;65.81
44103;BME280;29769;42.178;24.742;2023-03-31T02:00:09;99673.28;;;6.75;65.59
44103;BME280;29769;42.178;24.742;2023-03-31T02:03:05;99670.69;;;6.61;65.60
44103;BME280;29769;42.178;24.742;2023-03-31T02:05:55;99683.72;;;6.55;66.36
44103;BME280;29769;42.178;24.742;2023-03-31T02:08:45;99674.16;;;6.46;67.14
44103;BME280;29769;42.178;24.742;2023-03-31T02:11:32;99647.16;;;6.35;67.15
44103;BME280;29769;42.178;24.742;2023-03-31T02:14:22;99663.69;;;6.51;67.45
44103;BME280;29769;42.178;24.742;2023-03-31T02:17:14;99666.31;;;6.55;68.30
44103;BME280;29769;42.178;24.742;2023-03-31T02:20:13;99664.56;;;6.38;69.55
44103;BME280;29769;42.178;24.742;2023-03-31T02:22:59;99668.06;;;6.46;69.99
44103;BME280;29769;42.178;24.742;2023-03-31T02:25:50;99661.94;;;6.41;69.88
44103;BME280;29769;42.178;24.742;2023-03-31T02:28:37;99648.03;;;6.45;70.15
44103;BME280;29769;42.178;24.742;2023-03-31T02:34:41;99661.09;;;6.60;70.27
44103;BME280;29769;42.178;24.742;2023-03-31T02:37:27;99666.34;;;6.58;70.03
44103;BME280;29769;42.178;24.742;2023-03-31T02:40:19;99672.41;;;6.51;70.04
44103;BME280;29769;42.178;24.742;2023-03-31T02:43:05;99651.50;;;6.44;70.72
44103;BME280;29769;42.178;24.742;2023-03-31T02:45:50;99664.56;;;6.47;71.16
44103;BME280;29769;42.178;24.742;2023-03-31T02:48:42;99673.28;;;6.43;70.37
44103;BME280;29769;42.178;24.742;2023-03-31T03:01:10;99674.00;;;5.86;72.53
44103;BME280;29769;42.178;24.742;2023-03-31T03:13:40;99664.25;;;5.45;77.89
44103;BME280;29769;42.178;24.742;2023-03-31T03:16:39;99667.59;;;5.18;84.05
44103;BME280;29769;42.178;24.742;2023-03-31T03:19:25;99698.00;;;5.13;92.66
44103;BME280;29769;42.178;24.742;2023-03-31T03:22:10;99697.06;;;5.04;97.15
44103;BME280;29769;42.178;24.742;2023-03-31T03:24:54;99637.81;;;4.77;98.06
44103;BME280;29769;42.178;24.742;2023-03-31T03:27:39;99692.81;;;5.18;95.53
44103;BME280;29769;42.178;24.742;2023-03-31T03:30:25;99698.94;;;5.24;94.88
44103;BME280;29769;42.178;24.742;2023-03-31T03:33:09;99699.84;;;5.29;93.89
44103;BME280;29769;42.178;24.742;2023-03-31T03:36:00;99696.41;;;5.40;92.40
44103;BME280;29769;42.178;24.742;2023-03-31T03:38:45;99690.31;;;5.39;92.53
44103;BME280;29769;42.178;24.742;2023-03-31T03:41:30;99704.25;;;5.43;92.33
44103;BME280;29769;42.178;24.742;2023-03-31T03:44:16;99664.13;;;5.19;94.13
44103;BME280;29769;42.178;24.742;2023-03-31T03:47:01;99697.28;;;5.38;93.11
44103;BME280;29769;42.178;24.742;2023-03-31T03:49:46;99699.91;;;5.40;94.05
44103;BME280;29769;42.178;24.742;2023-03-31T03:52:32;99699.00;;;5.35;94.43
44103;BME280;29769;42.178;24.742;2023-03-31T03:55:17;99692.88;;;5.31;96.05
44103;BME280;29769;42.178;24.742;2023-03-31T03:58:02;99698.00;;;5.16;98.74
44103;BME280;29769;42.178;24.742;2023-03-31T04:00:47;99704.06;;;5.12;98.81
44103;BME280;29769;42.178;24.742;2023-03-31T04:03:32;99692.72;;;5.06;99.48
44103;BME280;29769;42.178;24.742;2023-03-31T04:06:17;99709.25;;;5.06;98.13
44103;BME280;29769;42.178;24.742;2023-03-31T04:09:02;99701.28;;;4.91;99.46
44103;BME280;29769;42.178;24.742;2023-03-31T04:11:47;99685.59;;;4.80;100.00
44103;BME280;29769;42.178;24.742;2023-03-31T04:14:32;99684.84;;;4.97;99.36
44103;BME280;29769;42.178;24.742;2023-03-31T04:17:17;99656.16;;;4.90;100.00
44103;BME280;29769;42.178;24.742;2023-03-31T04:20:09;99670.13;;;5.03;100.00
44103;BME280;29769;42.178;24.742;2023-03-31T04:22:55;99670.13;;;5.06;100.00
44103;BME280;29769;42.178;24.742;2023-03-31T04:25:40;99671.88;;;5.07;99.32
44103;BME280;29769;42.178;24.742;2023-03-31T04:28:29;99664.94;;;5.08;97.21
44103;BME280;29769;42.178;24.742;2023-03-31T04:31:18;99637.94;;;4.95;95.21
44103;BME280;29769;42.178;24.742;2023-03-31T04:34:13;99661.50;;;5.16;91.41
44103;BME280;29769;42.178;24.742;2023-03-31T04:36:59;99662.44;;;5.26;90.97
44103;BME280;29769;42.178;24.742;2023-03-31T04:39:46;99665.97;;;5.35;90.91
44103;BME280;29769;42.178;24.742;2023-03-31T04:42:34;99634.66;;;5.31;92.22
44103;BME280;29769;42.178;24.742;2023-03-31T04:45:20;99667.81;;;5.64;89.10
44103;BME280;29769;42.178;24.742;2023-03-31T04:48:04;99658.31;;;5.72;88.86
44103;BME280;29769;42.178;24.742;2023-03-31T04:50:49;99675.78;;;5.90;88.64
44103;BME280;29769;42.178;24.742;2023-03-31T04:53:34;99668.00;;;6.03;87.69
44103;BME280;29769;42.178;24.742;2023-03-31T04:56:19;99654.94;;;6.11;87.01
44103;BME280;29769;42.178;24.742;2023-03-31T04:59:04;99656.72;;;6.21;87.37
44103;BME280;29769;42.178;24.742;2023-03-31T05:01:49;99594.84;;;5.91;86.97
44103;BME280;29769;42.178;24.742;2023-03-31T05:04:33;99647.13;;;6.28;87.10
44103;BME280;29769;42.178;24.742;2023-03-31T05:07:19;99652.38;;;6.40;86.47
44103;BME280;29769;42.178;24.742;2023-03-31T05:10:04;99646.28;;;6.44;84.93
44103;BME280;29769;42.178;24.742;2023-03-31T05:12:49;99641.91;;;6.55;84.13
44103;BME280;29769;42.178;24.742;2023-03-31T05:15:37;99624.50;;;6.64;82.01
44103;BME280;29769;42.178;24.742;2023-03-31T05:18:23;99626.22;;;6.68;80.69
44103;BME280;29769;42.178;24.742;2023-03-31T05:21:19;99617.50;;;6.72;79.59
44103;BME280;29769;42.178;24.742;2023-03-31T05:24:04;99621.88;;;6.80;79.18
44103;BME280;29769;42.178;24.742;2023-03-31T05:26:49;99618.38;;;6.84;78.77
44103;BME280;29769;42.178;24.742;2023-03-31T05:29:36;99614.88;;;6.94;78.48
44103;BME280;29769;42.178;24.742;2023-03-31T05:32:21;99604.41;;;6.97;79.46
44103;BME280;29769;42.178;24.742;2023-03-31T05:35:06;99613.13;;;6.99;82.19
44103;BME280;29769;42.178;24.742;2023-03-31T05:37:51;99616.59;;;7.02;84.25
44103;BME280;29769;42.178;24.742;2023-03-31T05:40:36;99608.75;;;7.02;83.08
44103;BME280;29769;42.178;24.742;2023-03-31T05:43:21;99579.13;;;7.00;81.85
44103;BME280;29769;42.178;24.742;2023-03-31T05:46:06;99582.59;;;7.08;81.44
44103;BME280;29769;42.178;24.742;2023-03-31T05:48:51;99582.59;;;7.11;83.87
44103;BME280;29769;42.178;24.742;2023-03-31T05:51:35;99585.19;;;7.14;85.47
44103;BME280;29769;42.178;24.742;2023-03-31T05:54:20;99579.06;;;7.22;87.21
44103;BME280;29769;42.178;24.742;2023-03-31T05:57:06;99585.16;;;7.24;85.59
44103;BME280;29769;42.178;24.742;2023-03-31T05:59:50;99572.03;;;7.36;84.26
44103;BME280;29769;42.178;24.742;2023-03-31T06:02:36;99566.78;;;7.39;84.04
44103;BME280;29769;42.178;24.742;2023-03-31T06:05:21;99558.94;;;7.39;82.56
44103;BME280;29769;42.178;24.742;2023-03-31T06:08:10;99584.09;;;7.67;81.18
44103;BME280;29769;42.178;24.742;2023-03-31T06:10:54;99585.75;;;7.83;80.35
44103;BME280;29769;42.178;24.742;2023-03-31T06:13:40;99591.69;;;8.07;79.04
44103;BME280;29769;42.178;24.742;2023-03-31T06:16:25;99588.03;;;8.29;76.83
44103;BME280;29769;42.178;24.742;2023-03-31T06:19:09;99588.75;;;8.52;74.89
44103;BME280;29769;42.178;24.742;2023-03-31T06:21:54;99590.34;;;8.68;72.44
44103;BME280;29769;42.178;24.742;2023-03-31T06:24:39;99586.75;;;8.78;72.27
44103;BME280;29769;42.178;24.742;2023-03-31T06:27:24;99585.69;;;8.96;71.29
44103;BME280;29769;42.178;24.742;2023-03-31T06:30:09;99588.31;;;8.96;71.24
44103;BME280;29769;42.178;24.742;2023-03-31T06:32:54;99583.03;;;9.02;73.00
44103;BME280;29769;42.178;24.742;2023-03-31T06:35:39;99588.16;;;9.13;75.76
44103;BME280;29769;42.178;24.742;2023-03-31T06:38:26;99576.75;;;9.15;75.88
44103;BME280;29769;42.178;24.742;2023-03-31T06:41:13;99570.41;;;9.34;73.67
44103;BME280;29769;42.178;24.742;2023-03-31T06:43:57;99573.66;;;9.53;72.34
44103;BME280;29769;42.178;24.742;2023-03-31T06:46:42;99579.50;;;9.73;69.20
44103;BME280;29769;42.178;24.742;2023-03-31T06:49:27;99576.47;;;10.01;65.81
44103;BME280;29769;42.178;24.742;2023-03-31T06:52:12;99570.84;;;10.28;62.77
44103;BME280;29769;42.178;24.742;2023-03-31T06:54:58;99571.94;;;10.67;60.80
44103;BME280;29769;42.178;24.742;2023-03-31T06:57:44;99566.50;;;11.65;58.31
44103;BME280;29769;42.178;24.742;2023-03-31T07:00:31;99556.91;;;12.01;55.50
44103;BME280;29769;42.178;24.742;2023-03-31T07:03:15;99548.16;;;12.36;52.18
44103;BME280;29769;42.178;24.742;2023-03-31T07:06:02;99553.72;;;13.25;51.17
44103;BME280;29769;42.178;24.742;2023-03-31T07:08:47;99549.25;;;13.86;47.39
44103;BME280;29769;42.178;24.742;2023-03-31T07:11:32;99549.38;;;14.39;45.64
44103;BME280;29769;42.178;24.742;2023-03-31T07:14:16;99552.09;;;14.88;44.67
44103;BME280;29769;42.178;24.742;2023-03-31T07:17:01;99561.50;;;15.22;42.86
44103;BME280;29769;42.178;24.742;2023-03-31T07:19:46;99544.81;;;15.43;42.23
44103;BME280;29769;42.178;24.742;2023-03-31T07:22:31;99544.25;;;15.58;41.75
44103;BME280;29769;42.178;24.742;2023-03-31T07:25:16;99539.25;;;15.74;41.17
44103;BME280;29769;42.178;24.742;2023-03-31T07:28:02;99536.69;;;15.94;40.58
44103;BME280;29769;42.178;24.742;2023-03-31T07:30:47;99526.19;;;16.34;40.01
44103;BME280;29769;42.178;24.742;2023-03-31T07:33:32;99537.03;;;17.31;37.89
44103;BME280;29769;42.178;24.742;2023-03-31T07:36:17;99526.03;;;17.96;36.96
44103;BME280;29769;42.178;24.742;2023-03-31T07:39:03;99534.66;;;18.20;35.61
44103;BME280;29769;42.178;24.742;2023-03-31T07:41:49;99524.38;;;18.48;34.43
44103;BME280;29769;42.178;24.742;2023-03-31T07:44:35;99531.97;;;19.25;33.82
44103;BME280;29769;42.178;24.742;2023-03-31T07:47:19;99521.59;;;20.31;32.33
44103;BME280;29769;42.178;24.742;2023-03-31T07:50:05;99521.50;;;21.22;31.22
44103;BME280;29769;42.178;24.742;2023-03-31T07:52:50;99512.31;;;22.78;28.46
44103;BME280;29769;42.178;24.742;2023-03-31T07:55:36;99511.06;;;23.09;28.52
44103;BME280;29769;42.178;24.742;2023-03-31T07:58:20;99507.41;;;23.22;27.80
44103;BME280;29769;42.178;24.742;2023-03-31T08:01:06;99492.22;;;23.48;27.60
44103;BME280;29769;42.178;24.742;2023-03-31T08:03:51;99496.13;;;24.17;27.16
44103;BME280;29769;42.178;24.742;2023-03-31T08:06:39;99491.44;;;25.58;25.61
44103;BME280;29769;42.178;24.742;2023-03-31T08:09:24;99480.09;;;26.20;25.03
44103;BME280;29769;42.178;24.742;2023-03-31T08:12:09;99482.69;;;26.22;24.50
44103;BME280;29769;42.178;24.742;2023-03-31T08:14:53;99467.13;;;26.98;23.53
44103;BME280;29769;42.178;24.742;2023-03-31T08:17:39;99454.84;;;27.36;23.77
44103;BME280;29769;42.178;24.742;2023-03-31T08:20:24;99443.66;;;27.71;23.15
44103;BME280;29769;42.178;24.742;2023-03-31T08:23:09;99443.50;;;28.51;22.62
44103;BME280;29769;42.178;24.742;2023-03-31T08:26:09;99425.97;;;28.64;22.31
44103;BME280;29769;42.178;24.742;2023-03-31T08:28:56;99420.44;;;28.18;22.99
44103;BME280;29769;42.178;24.742;2023-03-31T08:31:42;99425.72;;;29.33;22.61
44103;BME280;29769;42.178;24.742;2023-03-31T08:34:27;99415.84;;;29.69;21.50
44103;BME280;29769;42.178;24.742;2023-03-31T08:37:11;99415.31;;;28.72;21.83
44103;BME280;29769;42.178;24.742;2023-03-31T08:39:56;99410.84;;;28.91;22.04
44103;BME280;29769;42.178;24.742;2023-03-31T08:42:44;99410.22;;;30.43;21.04
44103;BME280;29769;42.178;24.742;2023-03-31T08:45:36;99402.44;;;31.69;19.96
44103;BME280;29769;42.178;24.742;2023-03-31T08:48:37;99397.84;;;32.19;19.45
44103;BME280;29769;42.178;24.742;2023-03-31T08:51:34;99393.41;;;31.60;20.91
44103;BME280;29769;42.178;24.742;2023-03-31T08:54:37;99381.84;;;32.33;20.72
44103;BME280;29769;42.178;24.742;2023-03-31T08:57:24;99371.19;;;31.05;21.94
44103;BME280;29769;42.178;24.742;2023-03-31T09:00:15;99359.41;;;30.97;21.88
44103;BME280;29769;42.178;24.742;2023-03-31T09:03:08;99352.66;;;29.69;22.78
44103;BME280;29769;42.178;24.742;2023-03-31T09:06:00;99337.19;;;27.13;25.63
44103;BME280;29769;42.178;24.742;2023-03-31T09:08:47;99351.47;;;28.70;24.54
44103;BME280;29769;42.178;24.742;2023-03-31T09:11:38;99323.16;;;30.19;23.06
44103;BME280;29769;42.178;24.742;2023-03-31T09:17:32;99316.38;;;33.14;20.50
44103;BME280;29769;42.178;24.742;2023-03-31T09:20:31;99311.41;;;33.64;20.43
44103;BME280;29769;42.178;24.742;2023-03-31T09:29:48;99298.75;;;31.64;21.92
44103;BME280;29769;42.178;24.742;2023-03-31T09:32:36;99282.22;;;27.82;25.09
44103;BME280;29769;42.178;24.742;2023-03-31T09:35:24;99289.47;;;27.92;25.59
44103;BME280;29769;42.178;24.742;2023-03-31T09:38:11;99291.03;;;26.13;27.05
44103;BME280;29769;42.178;24.742;2023-03-31T09:40:57;99266.56;;;25.42;28.07
44103;BME280;29769;42.178;24.742;2023-03-31T09:43:43;99275.34;;;25.12;28.89
44103;BME280;29769;42.178;24.742;2023-03-31T09:46:33;99252.22;;;27.17;26.35
44103;BME280;29769;42.178;24.742;2023-03-31T09:49:24;99266.19;;;26.31;28.34
44103;BME280;29769;42.178;24.742;2023-03-31T09:55:21;99246.47;;;25.14;29.08
44103;BME280;29769;42.178;24.742;2023-03-31T09:58:13;99250.47;;;25.62;29.25
44103;BME280;29769;42.178;24.742;2023-03-31T10:01:05;99258.47;;;25.10;29.45
44103;BME280;29769;42.178;24.742;2023-03-31T10:03:54;99232.66;;;24.74;29.64
44103;BME280;29769;42.178;24.742;2023-03-31T10:06:41;99216.25;;;24.10;30.68
44103;BME280;29769;42.178;24.742;2023-03-31T10:09:28;99234.88;;;22.94;32.47
44103;BME280;29769;42.178;24.742;2023-03-31T10:12:19;99228.78;;;23.40;31.59
44103;BME280;29769;42.178;24.742;2023-03-31T10:15:18;99219.44;;;24.82;30.38
44103;BME280;29769;42.178;24.742;2023-03-31T10:18:04;99219.34;;;24.84;30.18
44103;BME280;29769;42.178;24.742;2023-03-31T10:20:51;99211.06;;;26.75;28.26
44103;BME280;29769;42.178;24.742;2023-03-31T10:23:36;99215.75;;;27.90;26.89
44103;BME280;29769;42.178;24.742;2023-03-31T10:26:29;99214.03;;;27.40;26.55
44103;BME280;29769;42.178;24.742;2023-03-31T10:29:20;99210.06;;;28.58;25.89
44103;BME280;29769;42.178;24.742;2023-03-31T10:35:04;99199.00;;;31.64;22.41
44103;BME280;29769;42.178;24.742;2023-03-31T10:37:54;99184.44;;;30.65;23.00
44103;BME280;29769;42.178;24.742;2023-03-31T10:40:48;99186.31;;;27.29;26.58
44103;BME280;29769;42.178;24.742;2023-03-31T10:43:39;99174.22;;;27.04;26.65
44103;BME280;29769;42.178;24.742;2023-03-31T10:46:47;99177.47;;;29.50;24.54
44103;BME280;29769;42.178;24.742;2023-03-31T10:49:37;99170.06;;;30.21;24.00
44103;BME280;29769;42.178;24.742;2023-03-31T10:52:24;99153.69;;;29.62;24.46
44103;BME280;29769;42.178;24.742;2023-03-31T10:55:22;99136.78;;;28.69;25.29
44103;BME280;29769;42.178;24.742;2023-03-31T11:01:41;99140.81;;;29.64;24.42
44103;BME280;29769;42.178;24.742;2023-03-31T11:08:12;99116.91;;;29.59;25.09
44103;BME280;29769;42.178;24.742;2023-03-31T11:11:57;99104.25;;;27.78;25.64
44103;BME280;29769;42.178;24.742;2023-03-31T11:18:35;99097.88;;;27.79;25.87
44103;BME280;29769;42.178;24.742;2023-03-31T11:24:53;99083.06;;;28.29;24.98
44103;BME280;29769;42.178;24.742;2023-03-31T11:28:01;99084.19;;;27.80;26.31
44103;BME280;29769;42.178;24.742;2023-03-31T11:31:11;99079.09;;;28.96;25.41
44103;BME280;29769;42.178;24.742;2023-03-31T11:37:31;99070.28;;;31.96;21.56
44103;BME280;29769;42.178;24.742;2023-03-31T11:43:53;99058.81;;;31.29;21.49
44103;BME280;29769;42.178;24.742;2023-03-31T11:46:50;99050.94;;;30.36;23.02
44103;BME280;29769;42.178;24.742;2023-03-31T11:50:10;99048.06;;;30.96;22.26
44103;BME280;29769;42.178;24.742;2023-03-31T11:52:59;99049.44;;;31.32;22.14
44103;BME280;29769;42.178;24.742;2023-03-31T11:55:49;99045.53;;;32.92;20.56
44103;BME280;29769;42.178;24.742;2023-03-31T11:58:40;99035.06;;;29.55;23.79
44103;BME280;29769;42.178;24.742;2023-03-31T12:01:36;99037.28;;;27.72;26.39
44103;BME280;29769;42.178;24.742;2023-03-31T12:07:30;99035.66;;;27.32;25.85
44103;BME280;29769;42.178;24.742;2023-03-31T12:10:22;99028.63;;;27.68;25.83
44103;BME280;29769;42.178;24.742;2023-03-31T12:16:27;99022.22;;;28.06;25.35
44103;BME280;29769;42.178;24.742;2023-03-31T12:19:25;99012.00;;;29.08;24.12
44103;BME280;29769;42.178;24.742;2023-03-31T12:22:19;99019.34;;;29.15;23.99
44103;BME280;29769;42.178;24.742;2023-03-31T12:25:11;99011.84;;;30.13;22.93
44103;BME280;29769;42.178;24.742;2023-03-31T12:27:56;99013.28;;;29.91;23.02
44103;BME280;29769;42.178;24.742;2023-03-31T12:30:42;99021.38;;;28.33;24.42
44103;BME280;29769;42.178;24.742;2023-03-31T12:33:38;98994.50;;;28.67;24.33
44103;BME280;29769;42.178;24.742;2023-03-31T12:39:55;99000.03;;;29.62;22.87
44103;BME280;29769;42.178;24.742;2023-03-31T12:45:48;99002.09;;;29.34;22.57
44103;BME280;29769;42.178;24.742;2023-03-31T12:48:57;98985.84;;;28.99;23.25
44103;BME280;29769;42.178;24.742;2023-03-31T12:52:11;98968.56;;;28.74;23.26
44103;BME280;29769;42.178;24.742;2023-03-31T13:01:14;98970.31;;;31.19;21.14
44103;BME280;29769;42.178;24.742;2023-03-31T13:04:19;98943.16;;;29.36;23.02
44103;BME280;29769;42.178;24.742;2023-03-31T13:07:33;98969.66;;;31.09;21.26
44103;BME280;29769;42.178;24.742;2023-03-31T13:13:12;98947.09;;;30.26;21.59
44103;BME280;29769;42.178;24.742;2023-03-31T13:16:00;98937.78;;;29.18;22.24
44103;BME280;29769;42.178;24.742;2023-03-31T13:18:50;98929.19;;;27.99;23.19
44103;BME280;29769;42.178;24.742;2023-03-31T13:21:55;98940.78;;;28.72;23.12
44103;BME280;29769;42.178;24.742;2023-03-31T13:24:40;98936.94;;;28.57;23.84
44103;BME280;29769;42.178;24.742;2023-03-31T13:27:29;98927.25;;;28.54;23.30
44103;BME280;29769;42.178;24.742;2023-03-31T13:33:43;98924.22;;;27.30;24.42
44103;BME280;29769;42.178;24.742;2023-03-31T13:36:32;98913.06;;;26.00;26.04
44103;BME280;29769;42.178;24.742;2023-03-31T13:39:54;98907.91;;;25.17;27.44
44103;BME280;29769;42.178;24.742;2023-03-31T13:52:23;98920.19;;;24.48;28.29
44103;BME280;29769;42.178;24.742;2023-03-31T13:55:16;98921.91;;;24.06;30.27
44103;BME280;29769;42.178;24.742;2023-03-31T14:01:33;98915.44;;;24.20;29.86
44103;BME280;29769;42.178;24.742;2023-03-31T14:07:45;98895.31;;;24.88;28.36
44103;BME280;29769;42.178;24.742;2023-03-31T14:10:37;98888.97;;;25.19;28.47
44103;BME280;29769;42.178;24.742;2023-03-31T14:13:24;98905.97;;;24.99;29.28
44103;BME280;29769;42.178;24.742;2023-03-31T14:16:09;98893.88;;;25.14;28.34
44103;BME280;29769;42.178;24.742;2023-03-31T14:19:02;98896.69;;;25.33;28.58
44103;BME280;29769;42.178;24.742;2023-03-31T14:37:05;98883.44;;;23.52;30.79
44103;BME280;29769;42.178;24.742;2023-03-31T14:39:53;98885.03;;;23.21;30.34
44103;BME280;29769;42.178;24.742;2023-03-31T14:42:39;98880.84;;;22.94;30.82
44103;BME280;29769;42.178;24.742;2023-03-31T14:45:25;98884.03;;;23.11;31.36
44103;BME280;29769;42.178;24.742;2023-03-31T14:48:14;98885.28;;;23.07;31.54
44103;BME280;29769;42.178;24.742;2023-03-31T14:51:01;98888.91;;;22.83;31.64
44103;BME280;29769;42.178;24.742;2023-03-31T14:53:46;98877.69;;;22.89;31.60
44103;BME280;29769;42.178;24.742;2023-03-31T14:56:34;98885.41;;;23.16;31.61
44103;BME280;29769;42.178;24.742;2023-03-31T14:59:27;98878.16;;;23.72;30.71
44103;BME280;29769;42.178;24.742;2023-03-31T15:02:19;98875.94;;;24.52;29.98
44103;BME280;29769;42.178;24.742;2023-03-31T15:05:09;98869.22;;;25.09;28.80
44103;BME280;29769;42.178;24.742;2023-03-31T15:08:17;98874.19;;;25.13;28.22
44103;BME280;29769;42.178;24.742;2023-03-31T15:11:05;98862.22;;;24.55;29.03
44103;BME280;29769;42.178;24.742;2023-03-31T15:13:52;98858.97;;;23.88;29.65
44103;BME280;29769;42.178;24.742;2023-03-31T15:16:42;98872.94;;;23.60;30.44
44103;BME280;29769;42.178;24.742;2023-03-31T15:19:30;98873.78;;;23.49;30.28
44103;BME280;29769;42.178;24.742;2023-03-31T15:22:16;98876.78;;;23.89;30.16
44103;BME280;29769;42.178;24.742;2023-03-31T15:25:05;98871.56;;;24.19;29.71
44103;BME280;29769;42.178;24.742;2023-03-31T15:27:55;98864.03;;;24.02;29.51
44103;BME280;29769;42.178;24.742;2023-03-31T15:30:42;98856.28;;;23.88;30.19
44103;BME280;29769;42.178;24.742;2023-03-31T15:33:34;98878.75;;;23.76;31.00
44103;BME280;29769;42.178;24.742;2023-03-31T15:36:20;98881.22;;;23.68;31.36
44103;BME280;29769;42.178;24.742;2023-03-31T15:39:06;98878.78;;;23.31;31.48
44103;BME280;29769;42.178;24.742;2023-03-31T15:41:51;98876.47;;;22.93;31.87
44103;BME280;29769;42.178;24.742;2023-03-31T15:47:26;98876.06;;;22.30;32.79
44103;BME280;29769;42.178;24.742;2023-03-31T15:50:13;98873.31;;;22.07;33.34
44103;BME280;29769;42.178;24.742;2023-03-31T15:52:59;98870.16;;;21.77;33.58
44103;BME280;29769;42.178;24.742;2023-03-31T15:55:44;98876.78;;;21.97;33.33
44103;BME280;29769;42.178;24.742;2023-03-31T15:58:52;98867.53;;;22.36;32.75
44103;BME280;29769;42.178;24.742;2023-03-31T16:01:44;98865.91;;;22.57;32.47
44103;BME280;29769;42.178;24.742;2023-03-31T16:04:30;98854.41;;;22.79;31.94
44103;BME280;29769;42.178;24.742;2023-03-31T16:07:29;98862.09;;;23.05;31.40
44103;BME280;29769;42.178;24.742;2023-03-31T16:10:21;98866.47;;;23.18;30.90
44103;BME280;29769;42.178;24.742;2023-03-31T16:13:08;98855.00;;;23.27;30.86
44103;BME280;29769;42.178;24.742;2023-03-31T16:15:56;98844.78;;;23.21;31.09
44103;BME280;29769;42.178;24.742;2023-03-31T16:18:51;98855.25;;;23.24;30.62
44103;BME280;29769;42.178;24.742;2023-03-31T16:21:42;98845.75;;;22.97;30.73
44103;BME280;29769;42.178;24.742;2023-03-31T16:24:30;98858.47;;;22.60;31.51
44103;BME280;29769;42.178;24.742;2023-03-31T16:27:16;98853.81;;;22.05;32.43
44103;BME280;29769;42.178;24.742;2023-03-31T16:30:06;98851.22;;;21.80;33.08
44103;BME280;29769;42.178;24.742;2023-03-31T16:32:59;98859.38;;;21.42;33.53
44103;BME280;29769;42.178;24.742;2023-03-31T16:35:49;98856.75;;;21.04;34.56
44103;BME280;29769;42.178;24.742;2023-03-31T16:38:39;98853.56;;;20.61;35.16
44103;BME280;29769;42.178;24.742;2023-03-31T16:41:27;98867.78;;;20.22;35.59
44103;BME280;29769;42.178;24.742;2023-03-31T16:44:12;98862.47;;;19.95;36.05
44103;BME280;29769;42.178;24.742;2023-03-31T16:46:57;98865.88;;;19.85;36.25
44103;BME280;29769;42.178;24.742;2023-03-31T16:49:42;98864.50;;;19.65;36.82
44103;BME280;29769;42.178;24.742;2023-03-31T16:52:27;98859.22;;;19.51;37.24
44103;BME280;29769;42.178;24.742;2023-03-31T16:55:12;98865.13;;;19.28;37.83
44103;BME280;29769;42.178;24.742;2023-03-31T16:57:57;98862.19;;;19.04;38.42
44103;BME280;29769;42.178;24.742;2023-03-31T17:00:46;98862.31;;;18.88;38.82
44103;BME280;29769;42.178;24.742;2023-03-31T17:03:32;98864.75;;;18.63;39.95
44103;BME280;29769;42.178;24.742;2023-03-31T17:06:17;98863.00;;;18.48;40.34